Česky Dansk Deutsch English Español Suomi Français Magyar Italiano Nederlands norsk Polski Português svenska Türkçe

 

Het Weer

Chinandega (Nicaragua)

12:00, 1 augustus 2016 (GMT)

NWNNE
WE
SWSSE
Home            
Chinandega Choluteca Bluefields Amapala Managua A. C. Sandino Jinotega San Miguel / El Papalon Tegucigalpa Rivas Juigalpa Coronel Enrique Soto Cano Air Base La Esperanza El Salvador Intl. Airport / Comalapa San Salvador / Ilopango Yoro Catacamas Liberia Santa Rosa De Copan Santa Ana / El Palmar Acajutla La Mesa San Pedro Sula Nicoya Tela

Om een weerknop op uw website of weblog te plaatsen, copieer onderstaande code en plak die in uw pagina. In het eerste vakje staat HTML-code, in het tweede vakje UBB-code.


Add to Google

Details

Visibility:Greater than 10000 m, 10 km, 32800 ft, 6.2 miles
Clouds:CAVOC
Temperature:23°C, 73°F
Gefühlte Temperatur:21°C, 69°F
Dew-point:22°C, 72°F
Atmospheric pressure:1011 hPa, 758.3 mmHg, 29.85 inHg, 0.998 atm
Relative humidity:94.1 %
METAR:MNCH 011200Z 00000KT CAVOK 23/22 Q1011

Snelkoppelingen

Actuele weersinformatie van de hele wereld. Voeg locaties toe met het plus (+) symbool. Deze snelkoppelingen kunnen worden toegevoegd aan Google.

Lid van de Technetium groep

website free tracking
StatCounter NetStat W3C Validator

04-10-2022 05:49:22
astro.technetium.be money.technetium.be phote.technetium.be tafeltennistafel.technetium.be www.ligfiets.net